Time;durP1;ratioP1;P1;durP2;ratioP2;P2;SDS_P1;SDS_P2;PMS_P1;PMS_P2;Temp;Humidity;BMP_temperature;BMP_pressure;BME280_temperature;BME280_humidity;BME280_pressure;Samples;Min_cycle;Max_cycle;Signal;HPM_P1;HPM_P2
2021/01/21 00:01:48;;;;;;;50.03;33.98;;;;;;;1.95;72.56;99407.53;125442;1126;22454;-77
2021/01/21 00:04:16;;;;;;;45.70;32.08;;;;;;;1.93;72.61;99410.25;125325;1129;24008;-77
2021/01/21 00:06:44;;;;;;;53.50;34.30;;;;;;;1.89;72.29;99414.09;125408;1127;22539;-77
2021/01/21 00:09:14;;;;;;;49.23;31.65;;;;;;;1.84;72.63;99405.87;125288;1128;22447;-76
2021/01/21 00:11:42;;;;;;;41.58;27.95;;;;;;;1.82;72.04;99403.39;125404;1127;22508;-76
2021/01/21 00:14:10;;;;;;;41.65;26.70;;;;;;;1.83;73.22;99407.66;125366;1127;22408;-76
2021/01/21 00:16:38;;;;;;;41.73;28.62;;;;;;;1.87;72.51;99403.00;125424;1127;22442;-76
2021/01/21 00:19:06;;;;;;;49.13;31.10;;;;;;;1.88;72.59;99394.22;125417;1127;22429;-77
2021/01/21 00:21:35;;;;;;;39.88;27.82;;;;;;;1.85;73.22;99400.52;125416;1130;22441;-77
2021/01/21 00:24:04;;;;;;;40.15;28.83;;;;;;;1.86;72.68;99402.16;125401;1127;22443;-78
2021/01/21 00:26:33;;;;;;;41.60;29.37;;;;;;;1.84;72.62;99398.88;125371;1127;22475;-76
2021/01/21 00:29:02;;;;;;;38.58;26.65;;;;;;;1.85;72.51;99395.31;125366;1127;23337;-76
2021/01/21 00:31:30;;;;;;;38.83;28.52;;;;;;;1.87;73.04;99401.22;125370;1127;22470;-76
2021/01/21 00:33:58;;;;;;;39.03;26.90;;;;;;;1.88;72.88;99397.64;125369;1129;22450;-77
2021/01/21 00:36:27;;;;;;;42.23;29.20;;;;;;;1.88;72.76;99389.02;125446;1130;22462;-76
2021/01/21 00:38:54;;;;;;;38.45;28.62;;;;;;;1.87;72.34;99388.20;125437;1127;22463;-77
2021/01/21 00:41:22;;;;;;;37.33;27.58;;;;;;;1.85;73.11;99392.70;125415;1127;24310;-77
2021/01/21 00:43:50;;;;;;;39.38;27.82;;;;;;;1.82;72.64;99385.16;125355;1127;22548;-77
2021/01/21 00:46:18;;;;;;;41.55;28.62;;;;;;;1.80;72.86;99387.09;125365;1127;22492;-77
2021/01/21 00:48:47;;;;;;;39.30;27.82;;;;;;;1.80;73.21;99394.06;125419;1127;22712;-77
2021/01/21 00:51:15;;;;;;;41.18;28.42;;;;;;;1.80;72.45;99379.28;125457;1127;22463;-77
2021/01/21 00:53:43;;;;;;;40.92;28.30;;;;;;;1.80;73.46;99384.49;125366;1127;24565;-77
2021/01/21 00:56:11;;;;;;;43.23;28.12;;;;;;;1.78;72.83;99385.58;125363;1127;22440;-77
2021/01/21 00:58:39;;;;;;;39.90;31.35;;;;;;;1.73;72.98;99378.16;125392;1129;23468;-77
2021/01/21 01:01:07;;;;;;;74.30;59.45;;;;;;;1.70;72.86;99378.45;125396;1127;24579;-77
2021/01/21 01:03:35;;;;;;;60.52;38.17;;;;;;;1.70;73.35;99377.60;125416;1130;22498;-77
2021/01/21 01:06:07;;;;;;;46.55;30.75;;;;;;;1.73;73.29;99369.52;125426;1127;22519;-77
2021/01/21 01:08:36;;;;;;;41.83;29.18;;;;;;;1.74;73.49;99374.61;125393;1127;22538;-76
2021/01/21 01:11:05;;;;;;;45.20;29.87;;;;;;;1.75;73.49;99373.64;125129;1129;22447;-76
2021/01/21 01:13:33;;;;;;;39.33;26.80;;;;;;;1.77;73.69;99371.74;125428;1127;22546;-76
2021/01/21 01:16:07;;;;;;;41.85;30.55;;;;;;;1.76;73.26;99370.07;125380;1130;22444;-76
2021/01/21 01:18:42;;;;;;;42.35;28.07;;;;;;;1.76;73.69;99367.47;125422;1130;22494;-76
2021/01/21 01:21:13;;;;;;;39.20;26.55;;;;;;;1.78;73.86;99362.96;125373;1127;22818;-76
2021/01/21 01:23:41;;;;;;;38.75;27.98;;;;;;;1.80;72.90;99357.60;125424;1127;22441;-76
2021/01/21 01:26:09;;;;;;;36.98;27.85;;;;;;;1.83;73.78;99355.58;125438;1127;22457;-76
2021/01/21 01:28:40;;;;;;;41.05;29.82;;;;;;;1.86;73.46;99355.28;125377;1127;24651;-76
2021/01/21 01:31:10;;;;;;;;;;;;;;;1.86;72.97;99357.88;125491;1127;24256;-76
2021/01/21 01:33:39;;;;;;;36.35;27.10;;;;;;;1.85;73.26;99348.44;125466;1127;21370;-76
2021/01/21 01:36:08;;;;;;;38.15;27.60;;;;;;;1.92;74.06;99350.50;125416;1129;22544;-76
2021/01/21 01:38:36;;;;;;;33.28;26.45;;;;;;;1.96;74.02;99339.66;125457;1127;22451;-76
2021/01/21 01:41:28;;;;;;;33.00;26.45;;;;;;;1.99;73.77;99328.96;125404;1126;25059;-77
2021/01/21 01:43:57;;;;;;;38.85;28.27;;;;;;;2.01;73.15;99324.45;125335;1127;22888;-76
2021/01/21 01:46:27;;;;;;;31.93;25.62;;;;;;;2.04;73.02;99333.78;125334;1130;22445;-76
2021/01/21 01:49:00;;;;;;;33.33;25.35;;;;;;;2.05;73.79;99343.23;125445;1127;22452;-77
2021/01/21 01:51:36;;;;;;;32.15;25.55;;;;;;;2.06;73.21;99332.66;125133;1129;22567;-77
2021/01/21 01:54:05;;;;;;;33.08;26.23;;;;;;;2.08;73.40;99325.54;125412;1127;22443;-76
2021/01/21 01:56:37;;;;;;;35.58;26.42;;;;;;;2.10;73.73;99331.45;125366;1127;22451;-76
2021/01/21 01:59:13;;;;;;;32.23;24.10;;;;;;;2.12;73.74;99331.30;125387;1127;22466;-79
2021/01/21 02:01:56;;;;;;;29.48;23.95;;;;;;;2.14;73.16;99326.78;125360;1130;22463;-77
2021/01/21 02:04:28;;;;;;;33.53;24.55;;;;;;;2.17;72.94;99326.50;125398;1128;22436;-77
2021/01/21 02:07:17;;;;;;;31.23;24.45;;;;;;;2.18;73.29;99325.53;125350;1129;22440;-76
2021/01/21 02:10:02;;;;;;;27.22;23.02;;;;;;;2.21;73.31;99332.25;125458;1127;22461;-79
2021/01/21 02:12:47;;;;;;;30.37;23.50;;;;;;;2.25;73.86;99331.83;125469;1127;24329;-78
2021/01/21 02:15:18;;;;;;;28.65;23.10;;;;;;;2.27;73.05;99332.52;125441;1127;22466;-78
2021/01/21 02:18:18;;;;;;;27.48;22.45;;;;;;;2.28;73.75;99331.55;125411;1127;24373;-78
2021/01/21 02:21:18;;;;;;;31.12;23.35;;;;;;;2.29;73.22;99338.39;125436;1130;22518;-77
2021/01/21 02:24:17;;;;;;;29.82;21.68;;;;;;;2.30;73.55;99328.79;125427;1126;22439;-80
2021/01/21 02:26:53;;;;;;;26.70;22.15;;;;;;;2.33;73.05;99326.75;125428;1126;23336;-78
2021/01/21 02:29:30;;;;;;;35.90;29.65;;;;;;;2.38;73.42;99322.90;125146;1126;22462;-76
2021/01/21 02:32:07;;;;;;;36.17;26.97;;;;;;;2.41;73.17;99330.44;125387;1126;24582;-77
2021/01/21 02:34:59;;;;;;;34.48;24.60;;;;;;;2.44;73.65;99332.77;125385;1131;22440;-77
2021/01/21 02:37:30;;;;;;;24.47;20.23;;;;;;;2.45;73.45;99327.40;125499;1126;22444;-77
2021/01/21 02:40:06;;;;;;;27.15;21.80;;;;;;;2.46;73.21;99331.64;125462;1127;22439;-77
2021/01/21 02:42:48;;;;;;;26.50;21.48;;;;;;;2.49;72.61;99328.75;125464;1130;22459;-77
2021/01/21 02:45:19;;;;;;;29.02;21.73;;;;;;;2.51;72.81;99326.02;125455;1127;22480;-77
2021/01/21 02:47:53;;;;;;;28.23;22.30;;;;;;;2.51;72.47;99326.84;125470;1127;22445;-77
2021/01/21 02:50:23;;;;;;;26.40;21.40;;;;;;;2.52;72.57;99319.84;125421;1127;22426;-77
2021/01/21 02:52:59;;;;;;;23.73;19.30;;;;;;;2.53;72.90;99324.08;125421;1126;22441;-77
2021/01/21 02:55:49;;;;;;;27.45;20.12;;;;;;;2.54;72.43;99328.34;125471;1126;22450;-78
2021/01/21 02:58:35;;;;;;;26.02;19.82;;;;;;;2.54;73.22;99321.34;125387;1129;23106;-77
2021/01/21 03:01:08;;;;;;;21.93;18.62;;;;;;;2.56;72.59;99318.58;125442;1127;22486;-77
2021/01/21 03:03:41;;;;;;;25.57;19.65;;;;;;;2.57;72.84;99323.67;125382;1129;22538;-77
2021/01/21 03:06:14;;;;;;;21.68;18.17;;;;;;;2.57;72.60;99323.67;125397;1126;22503;-77
2021/01/21 03:08:43;;;;;;;23.63;19.13;;;;;;;2.58;72.93;99324.49;125407;1130;22444;-77
2021/01/21 03:11:14;;;;;;;24.52;18.77;;;;;;;2.59;73.18;99326.12;125429;1127;23393;-77
2021/01/21 03:13:56;;;;;;;21.67;19.07;;;;;;;2.63;72.34;99324.88;125373;1129;23233;-78
2021/01/21 03:16:25;;;;;;;21.87;19.30;;;;;;;2.65;72.57;99327.35;125453;1127;24980;-78
2021/01/21 03:18:56;;;;;;;27.85;19.50;;;;;;;2.66;72.82;99323.77;125378;1129;22507;-77
2021/01/21 03:21:24;;;;;;;27.07;19.52;;;;;;;2.66;72.96;99332.41;125410;1127;22444;-78
2021/01/21 03:23:56;;;;;;;23.40;19.10;;;;;;;2.68;72.32;99340.11;125384;1127;22453;-77
2021/01/21 03:26:31;;;;;;;21.75;17.85;;;;;;;2.70;72.27;99328.58;125435;1127;22444;-77
2021/01/21 03:29:10;;;;;;;21.48;17.15;;;;;;;2.73;73.03;99330.91;125377;1127;22457;-77
2021/01/21 03:31:38;;;;;;;21.05;16.95;;;;;;;2.80;72.76;99326.76;125394;1127;22441;-77
2021/01/21 03:34:08;;;;;;;23.42;16.70;;;;;;;2.86;72.87;99322.73;125389;1129;22441;-78
2021/01/21 03:36:41;;;;;;;22.67;17.20;;;;;;;2.92;73.01;99323.95;125459;1127;22445;-77
2021/01/21 03:39:09;;;;;;;20.15;16.95;;;;;;;2.96;72.58;99320.09;125399;1130;22453;-79
2021/01/21 03:41:56;;;;;;;18.25;16.20;;;;;;;2.96;72.71;99315.69;125358;1127;22443;-77
2021/01/21 03:44:38;;;;;;;22.45;17.48;;;;;;;2.95;72.79;99305.41;125334;1127;23982;-76
2021/01/21 03:47:07;;;;;;;22.65;17.75;;;;;;;2.98;71.95;99308.55;125341;1129;22457;-76
2021/01/21 03:49:46;;;;;;;25.45;18.15;;;;;;;3.03;72.69;99316.78;125365;1127;22453;-76
2021/01/21 03:52:19;;;;;;;20.68;17.20;;;;;;;3.06;72.59;99308.63;125323;1127;24602;-76
2021/01/21 03:55:10;;;;;;;22.40;16.85;;;;;;;3.09;72.53;99317.15;125369;1127;24300;-76
2021/01/21 03:57:39;;;;;;;19.67;15.50;;;;;;;3.10;71.85;99310.95;125405;1126;22443;-76
2021/01/21 04:00:26;;;;;;;18.90;15.43;;;;;;;3.14;72.52;99312.33;125353;1127;22533;-76
2021/01/21 04:02:57;;;;;;;21.93;15.58;;;;;;;3.17;72.41;99307.64;125408;1127;22440;-76
2021/01/21 04:05:31;;;;;;;20.70;15.38;;;;;;;3.21;71.66;99311.59;125407;1126;22462;-76
2021/01/21 04:08:00;;;;;;;18.02;15.38;;;;;;;3.24;71.96;99307.87;125386;1129;22541;-76
2021/01/21 04:10:29;;;;;;;21.62;15.68;;;;;;;3.28;71.66;99304.81;125345;1129;22445;-77
2021/01/21 04:13:11;;;;;;;23.07;16.85;;;;;;;3.29;71.79;99297.80;125446;1127;22454;-77
2021/01/21 04:15:39;;;;;;;18.73;16.75;;;;;;;3.33;71.46;99290.50;125378;1127;23457;-76
2021/01/21 04:18:08;;;;;;;24.25;19.90;;;;;;;3.36;71.43;99304.07;125395;1127;22448;-78
2021/01/21 04:20:57;;;;;;;27.62;23.75;;;;;;;3.37;71.66;99297.91;125420;1127;22446;-77
2021/01/21 04:23:25;;;;;;;26.45;23.32;;;;;;;3.38;71.29;99288.28;125345;1127;22435;-77
2021/01/21 04:25:57;;;;;;;25.80;23.42;;;;;;;3.34;71.10;99290.36;125410;1126;22444;-77
2021/01/21 04:28:30;;;;;;;25.97;23.47;;;;;;;3.33;71.45;99285.27;125438;1127;25047;-77
2021/01/21 04:30:59;;;;;;;28.10;25.35;;;;;;;3.35;71.44;99293.79;125428;1129;22447;-77
2021/01/21 04:33:27;;;;;;;29.02;26.33;;;;;;;3.39;71.27;99287.30;125438;1127;22498;-77
2021/01/21 04:35:56;;;;;;;28.85;25.97;;;;;;;3.42;71.38;99285.21;125352;1127;22443;-79
2021/01/21 04:38:24;;;;;;;27.05;24.37;;;;;;;3.47;71.34;99292.63;125388;1127;22459;-77
2021/01/21 04:40:59;;;;;;;27.93;25.17;;;;;;;3.50;71.40;99287.11;125439;1126;24575;-77
2021/01/21 04:43:46;;;;;;;25.77;23.25;;;;;;;3.50;71.17;99300.16;125404;1127;25095;-76
2021/01/21 04:46:20;;;;;;;28.62;25.77;;;;;;;3.51;71.78;99288.73;125426;1129;22445;-77
2021/01/21 04:48:51;;;;;;;31.02;27.17;;;;;;;3.55;71.32;99287.47;125384;1127;22500;-76
2021/01/21 04:51:21;;;;;;;32.60;29.02;;;;;;;3.59;71.43;99294.02;125392;1127;22442;-77
2021/01/21 04:54:13;;;;;;;22.30;20.20;;;;;;;3.61;71.12;99288.67;125414;1126;22445;-76
2021/01/21 04:57:03;;;;;;;22.70;20.27;;;;;;;3.61;71.43;99299.93;125358;1129;22459;-76
2021/01/21 04:59:43;;;;;;;21.77;18.37;;;;;;;3.60;71.90;99298.30;125418;1127;22437;-76
2021/01/21 05:02:20;;;;;;;23.12;18.55;;;;;;;3.62;71.92;99301.56;125367;1126;23394;-76
2021/01/21 05:05:01;;;;;;;20.20;18.12;;;;;;;3.62;71.10;99300.75;125328;1127;22460;-76
2021/01/21 05:07:40;;;;;;;24.37;19.40;;;;;;;3.65;71.26;99298.66;125367;1127;22520;-77
2021/01/21 05:10:10;;;;;;;20.37;18.25;;;;;;;3.66;71.86;99299.47;125027;1130;22495;-77
2021/01/21 05:12:39;;;;;;;19.10;17.12;;;;;;;3.70;71.08;99301.66;125459;1127;22496;-77
2021/01/21 05:15:28;;;;;;;22.10;19.37;;;;;;;3.69;71.79;99300.00;125346;1128;22451;-77
2021/01/21 05:18:36;;;;;;;19.60;17.60;;;;;;;3.68;71.69;99293.14;124884;1130;22763;-76
2021/01/21 05:21:22;;;;;;;19.12;16.80;;;;;;;3.69;71.87;99296.56;124895;1129;22452;-76
2021/01/21 05:24:12;;;;;;;23.05;18.57;;;;;;;3.71;71.47;99298.06;124646;1130;23396;-76
2021/01/21 05:27:17;;;;;;;19.05;17.05;;;;;;;3.71;71.74;99302.47;124840;1133;22557;-76
2021/01/21 05:30:19;;;;;;;18.45;15.60;;;;;;;3.71;71.16;99290.23;124733;1130;24561;-76
2021/01/21 05:32:50;;;;;;;17.73;15.80;;;;;;;3.74;71.05;99295.16;124985;1130;22557;-75
2021/01/21 05:35:34;;;;;;;20.82;15.28;;;;;;;3.75;70.89;99290.75;124848;1130;22530;-75
2021/01/21 05:38:03;;;;;;;15.68;14.07;;;;;;;3.75;71.39;99294.17;124905;1130;22715;-75
2021/01/21 05:40:52;;;;;;;18.40;16.23;;;;;;;3.76;71.19;99287.97;124947;1130;22551;-75
2021/01/21 05:43:37;;;;;;;19.60;17.50;;;;;;;3.78;70.95;99280.00;124893;1130;25061;-77
2021/01/21 05:46:18;;;;;;;21.87;19.53;;;;;;;3.81;71.79;99282.31;124885;1132;22466;-75
2021/01/21 05:48:47;;;;;;;22.65;20.35;;;;;;;3.83;71.91;99279.54;124927;1134;22517;-76
2021/01/21 05:51:15;;;;;;;20.52;18.10;;;;;;;3.85;71.46;99282.83;124915;1131;22602;-75
2021/01/21 05:53:44;;;;;;;21.37;16.45;;;;;;;3.88;71.35;99278.13;125279;1126;22444;-75
2021/01/21 05:56:29;;;;;;;22.48;18.42;;;;;;;3.87;71.26;99284.33;125319;1126;22460;-76
2021/01/21 05:59:15;;;;;;;20.35;16.77;;;;;;;3.87;71.02;99279.11;125415;1127;22456;-75
2021/01/21 06:01:48;;;;;;;20.02;15.60;;;;;;;3.90;71.25;99277.96;125431;1127;22439;-76
2021/01/21 06:04:25;;;;;;;19.87;16.42;;;;;;;3.91;71.34;99277.02;125486;1126;24700;-76
2021/01/21 06:06:56;;;;;;;19.43;16.27;;;;;;;3.92;70.91;99276.03;125426;1130;22820;-75
2021/01/21 06:09:29;;;;;;;33.65;26.15;;;;;;;3.93;71.48;99264.59;125408;1127;22436;-75
2021/01/21 06:12:02;;;;;;;118.93;90.40;;;;;;;3.90;71.33;99262.28;125459;1127;22454;-75
2021/01/21 06:14:31;;;;;;;262.40;202.32;;;;;;;3.89;71.48;99282.37;125539;1130;24306;-75
2021/01/21 06:17:00;;;;;;;35.35;28.02;;;;;;;3.91;71.44;99290.89;125463;1129;22451;-76
2021/01/21 06:19:31;;;;;;;44.63;29.93;;;;;;;3.93;71.43;99294.19;125461;1127;24262;-75
2021/01/21 06:22:11;;;;;;;70.50;35.37;;;;;;;3.98;71.09;99291.11;125428;1127;24578;-76
2021/01/21 06:25:02;;;;;;;44.83;23.63;;;;;;;4.01;71.46;99290.80;125508;1127;23290;-76
2021/01/21 06:27:43;;;;;;;35.90;22.73;;;;;;;4.02;70.82;99287.21;125494;1130;22433;-76
2021/01/21 06:30:26;;;;;;;35.68;23.57;;;;;;;4.00;70.73;99297.02;125487;1127;22452;-75
2021/01/21 06:33:04;;;;;;;30.00;23.27;;;;;;;4.03;71.08;99288.03;125529;1127;22469;-75
2021/01/21 06:36:07;;;;;;;82.22;41.42;;;;;;;4.03;70.96;99282.80;125461;1127;22920;-75
2021/01/21 06:38:42;;;;;;;38.90;27.07;;;;;;;4.03;71.58;99280.19;125355;1126;24351;-75
2021/01/21 06:41:16;;;;;;;34.13;24.65;;;;;;;4.04;71.00;99280.05;125371;1127;24243;-75
2021/01/21 06:43:46;;;;;;;40.45;28.10;;;;;;;4.05;70.62;99273.03;125373;1130;22440;-75
2021/01/21 06:46:16;;;;;;;39.38;29.15;;;;;;;4.05;71.48;99273.84;125407;1129;22898;-76
2021/01/21 06:48:49;;;;;;;75.33;48.73;;;;;;;4.04;70.62;99266.98;125489;1130;22541;-73
2021/01/21 06:51:19;;;;;;;323.68;207.10;;;;;;;4.03;70.98;99261.89;125026;1126;24307;-75
2021/01/21 06:53:52;;;;;;;88.37;51.80;;;;;;;4.01;71.03;99260.27;125383;1130;22448;-75
2021/01/21 06:56:36;;;;;;;50.40;27.25;;;;;;;4.00;71.09;99261.25;125399;1130;22445;-75
2021/01/21 06:59:04;;;;;;;45.55;27.93;;;;;;;4.00;71.00;99257.81;125404;1126;22440;-75
2021/01/21 07:01:32;;;;;;;55.80;30.68;;;;;;;4.02;71.23;99261.08;125380;1127;22439;-75
2021/01/21 07:04:04;;;;;;;39.48;25.77;;;;;;;4.04;71.59;99269.60;125447;1127;22511;-77
2021/01/21 07:06:57;;;;;;;34.30;23.45;;;;;;;4.06;70.94;99262.41;125392;1127;22445;-75
2021/01/21 07:09:26;;;;;;;36.75;23.52;;;;;;;4.06;70.79;99267.63;125374;1127;22440;-75
2021/01/21 07:11:58;;;;;;;36.38;22.52;;;;;;;4.08;70.89;99273.55;125315;1129;22486;-75
2021/01/21 07:14:33;;;;;;;32.83;22.43;;;;;;;4.11;71.54;99270.63;125459;1128;23749;-75
2021/01/21 07:17:04;;;;;;;32.40;23.98;;;;;;;4.15;71.60;99274.56;125436;1127;22785;-75
2021/01/21 07:19:37;;;;;;;36.98;24.57;;;;;;;4.21;70.99;99281.80;125409;1127;22533;-75
2021/01/21 07:22:22;;;;;;;31.65;21.82;;;;;;;4.26;71.53;99276.10;125392;1127;22445;-75
2021/01/21 07:25:00;;;;;;;27.55;19.52;;;;;;;4.33;71.35;99282.38;125337;1130;22543;-80
2021/01/21 07:27:31;;;;;;;29.37;19.45;;;;;;;4.40;71.37;99290.44;125329;1127;24338;-78
2021/01/21 07:30:28;;;;;;;34.08;22.87;;;;;;;4.43;70.72;99303.17;125343;1127;22498;-78
2021/01/21 07:33:23;;;;;;;35.38;22.85;;;;;;;4.48;70.62;99303.55;125309;1130;22443;-78
2021/01/21 07:35:51;;;;;;;32.93;24.10;;;;;;;4.48;71.16;99300.93;125371;1127;22454;-79
2021/01/21 07:38:41;;;;;;;27.62;19.48;;;;;;;4.50;70.41;99291.15;125500;1127;22457;-79
2021/01/21 07:41:53;;;;;;;35.73;22.80;;;;;;;4.52;70.43;99294.41;125363;1130;22423;-78
2021/01/21 07:44:21;;;;;;;19.75;16.82;;;;;;;4.55;70.67;99303.75;125396;1129;22451;-79
2021/01/21 07:46:49;;;;;;;24.45;17.98;;;;;;;4.59;70.55;99305.89;125208;1127;24598;-77
2021/01/21 07:49:23;;;;;;;31.60;22.55;;;;;;;4.61;70.73;99316.22;125392;1130;22601;-79
2021/01/21 07:52:06;;;;;;;26.05;19.17;;;;;;;4.61;70.47;99317.03;125171;1127;22446;-78
2021/01/21 07:54:45;;;;;;;;;;;;;;;4.58;70.63;99306.87;125248;1129;22463;-78
2021/01/21 07:57:23;;;;;;;34.13;21.50;;;;;;;4.55;70.29;99308.98;125384;1127;21409;-77
2021/01/21 08:00:05;;;;;;;29.57;19.82;;;;;;;4.60;70.26;99299.70;125346;1129;22960;-77
2021/01/21 08:02:50;;;;;;;52.10;37.35;;;;;;;4.59;70.59;99290.20;125307;1127;22632;-78
2021/01/21 08:05:23;;;;;;;45.55;30.90;;;;;;;4.57;70.16;99279.09;125321;1128;22451;-79
2021/01/21 08:07:53;;;;;;;33.00;23.00;;;;;;;4.60;70.56;99265.70;125321;1127;22457;-77
2021/01/21 08:10:23;;;;;;;39.23;25.50;;;;;;;4.62;69.94;99258.50;125326;1128;23287;-77
2021/01/21 08:12:55;;;;;;;33.75;20.43;;;;;;;4.65;70.69;99257.38;125326;1130;22448;-76
2021/01/21 08:15:25;;;;;;;34.48;21.48;;;;;;;4.66;69.90;99246.73;125373;1129;22449;-76
2021/01/21 08:17:55;;;;;;;32.93;18.32;;;;;;;4.72;70.42;99245.30;125403;1127;22460;-76
2021/01/21 08:20:27;;;;;;;29.25;19.48;;;;;;;4.78;70.44;99246.48;125026;1129;23244;-76
2021/01/21 08:23:09;;;;;;;29.67;17.42;;;;;;;4.81;70.36;99262.68;125405;1127;22441;-76
2021/01/21 08:25:46;;;;;;;;;;;;;;;4.80;70.49;99287.22;125412;1129;22440;-76
2021/01/21 08:28:17;;;;;;;31.73;21.30;;;;;;;4.85;70.05;99284.12;125402;1127;21325;-76
2021/01/21 08:30:47;;;;;;;26.65;19.45;;;;;;;4.96;70.61;99281.20;125387;1128;22953;-77
2021/01/21 08:33:21;;;;;;;30.60;21.13;;;;;;;5.06;69.70;99284.52;125390;1130;22980;-78
2021/01/21 08:35:57;;;;;;;21.30;16.37;;;;;;;5.13;70.32;99290.78;125389;1127;24301;-77
2021/01/21 08:38:36;;;;;;;23.52;17.92;;;;;;;5.22;69.43;99306.50;125373;1127;22453;-77
2021/01/21 08:41:35;;;;;;;34.88;22.65;;;;;;;5.28;69.42;99316.34;125436;1127;22441;-77
2021/01/21 08:44:14;;;;;;;32.83;22.58;;;;;;;5.35;69.45;99294.59;125402;1130;22433;-78
2021/01/21 08:46:43;;;;;;;29.45;21.12;;;;;;;5.46;69.44;99303.94;125323;1127;22441;-77
2021/01/21 08:49:11;;;;;;;29.00;21.45;;;;;;;5.62;69.13;99314.45;125383;1127;22611;-77
2021/01/21 08:51:44;;;;;;;27.58;20.32;;;;;;;5.66;69.15;99312.33;125388;1129;22459;-77
2021/01/21 08:54:20;;;;;;;33.33;23.18;;;;;;;5.75;68.57;99308.75;125374;1127;24558;-77
2021/01/21 08:57:09;;;;;;;32.05;22.40;;;;;;;5.87;68.52;99310.08;125337;1129;22441;-77
2021/01/21 08:59:39;;;;;;;30.60;20.40;;;;;;;5.94;68.18;99310.28;125408;1127;22459;-77
2021/01/21 09:02:10;;;;;;;23.67;18.67;;;;;;;5.99;67.99;99305.34;125369;1131;22450;-75
2021/01/21 09:04:41;;;;;;;31.93;20.62;;;;;;;6.07;67.99;99307.17;125326;1127;24342;-75
2021/01/21 09:07:10;;;;;;;27.07;19.73;;;;;;;6.17;67.93;99317.50;125382;1127;22459;-75
2021/01/21 09:09:42;;;;;;;30.25;20.97;;;;;;;6.25;67.45;99315.67;125397;1127;22434;-75
2021/01/21 09:12:18;;;;;;;30.90;21.97;;;;;;;6.29;67.41;99313.53;125421;1127;26071;-75
2021/01/21 09:15:04;;;;;;;31.05;22.80;;;;;;;6.34;67.11;99326.98;125363;1128;22436;-75
2021/01/21 09:17:33;;;;;;;31.95;24.35;;;;;;;6.41;66.81;99324.52;125352;1127;22436;-75
2021/01/21 09:20:26;;;;;;;39.78;29.30;;;;;;;6.39;66.45;99322.05;125354;1130;22442;-75
2021/01/21 09:23:20;;;;;;;34.90;26.40;;;;;;;6.46;66.56;99317.77;125463;1127;22453;-75
2021/01/21 09:25:49;;;;;;;28.25;21.52;;;;;;;6.54;66.71;99330.89;125355;1130;22453;-74
2021/01/21 09:28:19;;;;;;;33.90;22.65;;;;;;;6.63;66.14;99326.45;125356;1127;24642;-75
2021/01/21 09:30:50;;;;;;;30.35;21.70;;;;;;;6.76;66.27;99323.28;125360;1127;22445;-75
2021/01/21 09:33:18;;;;;;;29.27;21.27;;;;;;;6.83;66.25;99317.22;125376;1131;22426;-75
2021/01/21 09:35:51;;;;;;;30.00;21.62;;;;;;;6.94;65.94;99315.21;125355;1127;23391;-76
2021/01/21 09:38:19;;;;;;;23.98;18.45;;;;;;;7.06;65.46;99317.30;125348;1127;25012;-76
2021/01/21 09:40:50;;;;;;;35.85;25.68;;;;;;;7.12;65.24;99309.71;125372;1127;24409;-75
2021/01/21 09:43:18;;;;;;;32.13;21.70;;;;;;;7.20;65.02;99313.13;125310;1131;22529;-75
2021/01/21 09:45:46;;;;;;;27.70;20.08;;;;;;;7.32;64.70;99303.05;125289;1130;22442;-75
2021/01/21 09:48:14;;;;;;;23.35;18.25;;;;;;;7.44;64.71;99293.79;125432;1127;22443;-75
2021/01/21 09:50:42;;;;;;;23.62;16.12;;;;;;;7.57;64.49;99295.04;125387;1127;22459;-75
2021/01/21 09:53:10;;;;;;;23.87;15.78;;;;;;;7.55;63.71;99293.38;125454;1126;23231;-77
2021/01/21 09:55:38;;;;;;;23.22;16.82;;;;;;;7.59;63.39;99298.30;125347;1127;22442;-76
2021/01/21 09:58:18;;;;;;;28.00;20.43;;;;;;;7.70;63.71;99292.66;125355;1128;22750;-76
2021/01/21 10:00:46;;;;;;;30.60;21.70;;;;;;;7.65;62.92;99297.60;125373;1127;22444;-75
2021/01/21 10:03:14;;;;;;;24.90;18.70;;;;;;;7.62;62.79;99282.17;125409;1127;22453;-76
2021/01/21 10:05:43;;;;;;;31.45;19.90;;;;;;;7.62;62.68;99282.98;125420;1129;22491;-76
2021/01/21 10:08:11;;;;;;;28.45;19.70;;;;;;;7.59;61.94;99285.15;125388;1130;22544;-76
2021/01/21 10:10:39;;;;;;;25.50;19.53;;;;;;;7.52;62.42;99288.47;125076;1127;22930;-76
2021/01/21 10:13:08;;;;;;;32.38;18.50;;;;;;;7.48;62.33;99281.12;125330;1130;22450;-80
2021/01/21 10:15:36;;;;;;;22.93;16.95;;;;;;;7.39;62.08;99288.22;125344;1129;22456;-78
2021/01/21 10:18:04;;;;;;;22.27;16.17;;;;;;;7.37;62.82;99273.64;125333;1127;24548;-78
2021/01/21 10:20:32;;;;;;;24.70;16.85;;;;;;;7.40;62.92;99279.37;125362;1130;22538;-78
2021/01/21 10:23:01;;;;;;;26.75;16.82;;;;;;;7.31;62.59;99275.95;125395;1130;22980;-77
2021/01/21 10:25:29;;;;;;;21.35;17.55;;;;;;;7.24;62.28;99282.09;125335;1127;22618;-77
2021/01/21 10:27:57;;;;;;;26.95;20.08;;;;;;;7.22;62.68;99268.30;125327;1127;22425;-77
2021/01/21 10:30:25;;;;;;;32.13;21.77;;;;;;;7.20;62.74;99270.30;125362;1131;22965;-80
2021/01/21 10:32:54;;;;;;;24.87;19.75;;;;;;;7.30;63.18;99258.57;125323;1128;22456;-81
2021/01/21 10:35:23;;;;;;;28.12;21.68;;;;;;;7.45;62.90;99266.52;125414;1127;25008;-80
2021/01/21 10:37:51;;;;;;;26.10;20.10;;;;;;;7.71;63.40;99266.17;125052;1127;22429;-81
2021/01/21 10:40:19;;;;;;;26.68;19.92;;;;;;;7.91;62.72;99257.81;125355;1129;22907;-79
2021/01/21 10:42:47;;;;;;;26.12;18.42;;;;;;;8.02;61.64;99257.38;125385;1126;24579;-79
2021/01/21 10:45:15;;;;;;;24.12;17.80;;;;;;;8.08;61.52;99248.78;125379;1127;23414;-80
2021/01/21 10:47:43;;;;;;;25.40;18.62;;;;;;;8.07;61.09;99241.89;125015;1127;22440;-80
2021/01/21 10:50:12;;;;;;;52.30;42.53;;;;;;;8.13;61.06;99237.70;125423;1126;22530;-80
2021/01/21 10:52:40;;;;;;;24.25;20.88;;;;;;;8.20;60.72;99236.83;125386;1126;24562;-80
2021/01/21 10:55:10;;;;;;;24.63;18.42;;;;;;;8.28;60.62;99235.11;125332;1129;22551;-79
2021/01/21 10:57:38;;;;;;;23.85;18.95;;;;;;;8.41;60.76;99251.94;125373;1129;22533;-78
2021/01/21 11:00:07;;;;;;;27.00;16.42;;;;;;;8.58;60.59;99241.23;125395;1127;22447;-78
2021/01/21 11:02:35;;;;;;;24.30;16.27;;;;;;;8.63;60.21;99226.54;125002;1130;24456;-78
2021/01/21 11:05:04;;;;;;;22.67;15.45;;;;;;;8.55;59.75;99221.35;125322;1126;24556;-77
2021/01/21 11:07:33;;;;;;;22.15;15.18;;;;;;;8.55;59.82;99237.14;125170;1130;22566;-79
2021/01/21 11:10:01;;;;;;;24.00;15.95;;;;;;;8.62;59.98;99234.60;125289;1127;22444;-78
2021/01/21 11:12:50;;;;;;;26.45;15.95;;;;;;;8.60;59.61;99226.90;125614;1127;23475;-79
2021/01/21 11:15:19;;;;;;;24.72;16.80;;;;;;;8.55;59.50;99228.44;125694;1127;22512;-76
2021/01/21 11:17:49;;;;;;;23.77;14.78;;;;;;;8.41;58.81;99220.36;125325;1127;22463;-77
2021/01/21 11:20:18;;;;;;;24.82;14.85;;;;;;;8.31;59.57;99230.30;125656;1127;22822;-77
2021/01/21 11:22:46;;;;;;;26.97;18.85;;;;;;;8.14;59.32;99220.95;125340;1130;22606;-78
2021/01/21 11:25:15;;;;;;;27.48;18.67;;;;;;;8.04;59.52;99223.02;125356;1127;22462;-79
2021/01/21 11:28:04;;;;;;;28.10;20.20;;;;;;;7.87;59.67;99212.66;125354;1128;22506;-79
2021/01/21 11:30:33;;;;;;;26.73;19.57;;;;;;;7.77;59.97;99219.97;125390;1129;22421;-78
2021/01/21 11:33:02;;;;;;;25.48;18.92;;;;;;;7.69;59.98;99215.58;125431;1126;23286;-79
2021/01/21 11:35:31;;;;;;;27.42;17.65;;;;;;;7.61;60.45;99217.47;125509;1127;22463;-78
2021/01/21 11:37:59;;;;;;;23.90;17.55;;;;;;;7.55;60.69;99206.66;125413;1129;22440;-78
2021/01/21 11:40:27;;;;;;;23.27;18.15;;;;;;;7.54;60.77;99212.91;125399;1127;22463;-78
2021/01/21 11:42:55;;;;;;;25.62;18.10;;;;;;;7.47;60.83;99214.61;125342;1130;22445;-78
2021/01/21 11:45:23;;;;;;;36.08;24.43;;;;;;;7.40;60.87;99207.61;125360;1128;22433;-77
2021/01/21 11:47:51;;;;;;;31.15;22.22;;;;;;;7.33;61.22;99215.37;125408;1127;24685;-77
2021/01/21 11:50:20;;;;;;;29.03;20.60;;;;;;;7.27;61.22;99198.50;125186;1128;22840;-76